LiveATC.Net - Listen to live air traffic control over the Internet!


ICAO: KCPR  IATA: CPR   Airport: Casper/Natrona County International Airport
City: Casper   State/Province: Wyoming
Country: United States   Continent: North America
KCPR METAR Weather: KCPR 270953Z AUTO 21017KT 10SM CLR M08/M16 A3010 RMK AO2 PK WND 21027/0933 SLP241 T10781161
KCPR Flight Activity (FlightAware)
KCPR Airport Info   (iFlightPlanner)
KCPR VFR Sectional Chart   (iFlightPlanner) 
KCPR IFR Low Chart   (iFlightPlanner) 

KCPR Tower/App
Feed Status: UP   Listeners: 0
Listen in your browser - HTML5 player (in browser, HTML5)
Click here to listen with your own player (launches your MP3 player)
Archive Access: KCPR Tower/App
FacilityFrequency
Casper Approach120.650
Casper Tower118.300

NOTICE

Unauthorized use prohibited. See LiveATC.net Terms of Service


Airport/ARTCC Code
Frequency Search
(e.g., 124.400, 128.75)
Site-wide search
 


Browse Feeds
Top 50 Feeds
Coverage Map
Bad Weather Areas

LiveATC FAQ
Offer LiveATC feed
Contact LiveATC.net
Press Inquiries

LiveATC on iPhone
LiveATC on Android

Windows Phone
Windows 8/10

LiveATC Mobile
(Mobile browser)

ATC Audio Archives
Interesting Recordings

LiveATC Forums


Home Page
About LiveATC.net
Make a Donation
Terms of Use
Privacy Policy

Canadian Air Freqs

AIRMETs/SIGMETs

FAA Airport Status
Nat'l Airspace Status
Arrival Demand Charts


Server Software By:
Icecast.org
Liquidsoap